Eira — OJJP — position and weather

sailwx.info

Track history (hours):
 
Tides and Currents Weather Stations Pressure Air Temp Water Temp Dewpoint Dewpoint Depression Visibility Wind Speed Wind Dir Waves Ship Positions

Eira

Last reported at 2015-Mar-03 23:33 UTC. Time now 2015-Mar-04 00:12 UTC.
Position N 60°09' E 026°30'.

Length 157 m; draft 6.3 m.

Type: Cargo ship. MMSI: 230935000.

Date/timePositionNaut miles runAvg speedWind from/ knotsBaromVisibWave heightAir tempDewpointWater temp
2015-Mar-03 23:33N 60°09' E 026°30'0 0.0
2015-Mar-03 22:34N 60°09' E 026°30'0 0.0
2015-Mar-03 21:34N 60°09' E 026°30'0 0.0
2015-Mar-03 20:34N 60°09' E 026°30'0 0.0
2015-Mar-03 19:32N 60°09' E 026°30'0 0.0
2015-Mar-03 18:32N 60°09' E 026°30'0 0.0
2015-Mar-03 17:32N 60°09' E 026°29'0 0.0
2015-Mar-03 16:32N 60°09' E 026°29'0 0.0
2015-Mar-03 15:32N 60°09' E 026°29'0 0.0
2015-Mar-03 14:32N 60°09' E 026°29'0 0.0
2015-Mar-03 13:32N 60°09' E 026°29'0 0.0
2015-Mar-03 12:32N 60°09' E 026°29'0 0.0
2015-Mar-03 11:29N 60°09' E 026°29'0 0.0
2015-Mar-03 10:32N 60°09' E 026°29'0 0.0
2015-Mar-03 09:32N 60°09' E 026°29'0 0.0
2015-Mar-03 08:32N 60°09' E 026°29'0 0.0
2015-Mar-03 07:29N 60°09' E 026°29'0 0.0
2015-Mar-03 06:32N 60°09' E 026°29'0 0.0
2015-Mar-03 05:32N 60°09' E 026°29'0 0.0
2015-Mar-03 04:32N 60°09' E 026°30'0 0.0
2015-Mar-03 03:32N 60°09' E 026°30'0 0.0
2015-Mar-03 02:32N 60°09' E 026°30'0 0.0
2015-Mar-03 01:32N 60°09' E 026°30'0 0.0
2015-Mar-03 00:32N 60°09' E 026°30'0 0.0
2015-Mar-02 23:32N 60°09' E 026°30'0 0.0
2015-Mar-02 22:32N 60°09' E 026°30'0 0.0
2015-Mar-02 21:32N 60°09' E 026°30'0 0.0
2015-Mar-02 20:32N 60°09' E 026°30'0 0.0
2015-Mar-02 19:32N 60°09' E 026°30'0 0.0
2015-Mar-02 18:32N 60°09' E 026°30'0 0.0
2015-Mar-02 17:32N 60°09' E 026°30'0 0.0
2015-Mar-02 16:32N 60°09' E 026°30'0 0.0
2015-Mar-02 15:32N 60°09' E 026°30'0 0.0
2015-Mar-02 14:32N 60°09' E 026°30'0 0.0
2015-Mar-02 13:32N 60°09' E 026°30'0 0.0
2015-Mar-02 12:32N 60°09' E 026°30'0 0.0
2015-Mar-02 11:32N 60°09' E 026°30'0 0.0
2015-Mar-02 10:32N 60°09' E 026°30'0 0.0
2015-Mar-02 09:32N 60°09' E 026°30'0 0.0
2015-Mar-02 08:32N 60°09' E 026°30'0 0.0
2015-Mar-02 07:32N 60°09' E 026°30'0 0.0
2015-Mar-02 06:32N 60°09' E 026°30'0 0.0
2015-Mar-02 05:32N 60°09' E 026°30'0 0.0
2015-Mar-02 04:32N 60°09' E 026°30'0 0.0
2015-Mar-02 03:32N 60°09' E 026°30'0 0.0
2015-Mar-02 02:32N 60°09' E 026°30'0 0.0
2015-Mar-02 01:32N 60°09' E 026°30'0 0.0
2015-Mar-02 00:32N 60°09' E 026°30'0 0.0
2015-Mar-01 23:32N 60°09' E 026°30'0 0.0
2015-Mar-01 22:32N 60°09' E 026°30'0 0.0
2015-Mar-01 21:32N 60°09' E 026°30'0 0.0
2015-Mar-01 20:32N 60°09' E 026°30'0 0.0
2015-Mar-01 19:32N 60°09' E 026°30'0 0.0
2015-Mar-01 18:32N 60°09' E 026°30'0 0.0
2015-Mar-01 17:32N 60°09' E 026°30'0 0.0
2015-Mar-01 16:32N 60°09' E 026°30'0 0.1
2015-Mar-01 15:32N 60°09' E 026°30'0 0.0
2015-Mar-01 14:32N 60°09' E 026°30'0 0.0
2015-Mar-01 13:32N 60°09' E 026°30'0 0.0
2015-Mar-01 12:29N 60°09' E 026°30'0 0.0
2015-Mar-01 11:29N 60°09' E 026°30'0 0.0
2015-Mar-01 10:32N 60°09' E 026°30'0 0.0
2015-Mar-01 09:32N 60°09' E 026°30'0 0.0
2015-Mar-01 08:32N 60°09' E 026°30'0 0.0
2015-Mar-01 07:32N 60°09' E 026°30'0 0.0
2015-Mar-01 06:32N 60°09' E 026°30'0 0.0
2015-Mar-01 05:32N 60°09' E 026°30'0 0.0
2015-Mar-01 04:29N 60°09' E 026°30'0 0.0
2015-Mar-01 03:29N 60°09' E 026°30'0 0.0
2015-Mar-01 02:32N 60°09' E 026°30'0 0.0
2015-Mar-01 01:32N 60°09' E 026°30'0 0.0
2015-Mar-01 00:33N 60°09' E 026°30'5 4.8
2015-Feb-28 23:33N 60°06' E 026°38'10 9.8
2015-Feb-28 22:33N 60°01' E 026°55'9 8.9
2015-Feb-28 21:33N 60°02' E 027°12'11 9.6
2015-Feb-28 20:25N 60°08' E 027°31'82 9.2
2015-Feb-28 11:31N 59°53' E 030°11'0 0.0
2015-Feb-27 16:06N 59°53' E 030°11'2 4.0
2015-Feb-27 15:32N 59°54' E 030°08'93 2.5
2015-Feb-26 02:21N 59°58' E 027°02'810.6
2015-Feb-26 01:33N 59°59' E 026°46'9 8.4
2015-Feb-26 00:30N 60°02' E 026°29'7 7.4
2015-Feb-25 23:33N 60°09' E 026°30'0 0.0
2015-Feb-25 22:32N 60°09' E 026°30'0 0.0
2015-Feb-25 21:32N 60°09' E 026°30'0 0.0
2015-Feb-25 20:32N 60°09' E 026°30'0 0.0
2015-Feb-25 19:32N 60°09' E 026°30'0 0.0
2015-Feb-25 17:14N 60°09' E 026°30'0 0.0
2015-Feb-25 16:29N 60°09' E 026°30'0 0.0
2015-Feb-25 15:29N 60°09' E 026°30'0 0.0
2015-Feb-25 14:32N 60°09' E 026°30'0 0.0
2015-Feb-25 13:23N 60°09' E 026°30'0 0.0
2015-Feb-25 12:29N 60°09' E 026°30'0 0.0
2015-Feb-25 11:29N 60°09' E 026°30'0 0.0
2015-Feb-25 10:32N 60°09' E 026°30'0 0.0
2015-Feb-25 09:32N 60°09' E 026°30'0 0.0
2015-Feb-25 08:32N 60°09' E 026°30'0 0.0
2015-Feb-25 07:32N 60°09' E 026°30'0 0.0
2015-Feb-25 06:32N 60°09' E 026°30'0 0.0
2015-Feb-25 05:32N 60°09' E 026°30'0 0.0
2015-Feb-25 04:32N 60°09' E 026°30'0 0.0
2015-Feb-25 03:32N 60°09' E 026°30'0 0.0
2015-Feb-25 02:32N 60°09' E 026°30'0 0.0
2015-Feb-25 01:32N 60°09' E 026°30'0 0.0
2015-Feb-25 00:32N 60°09' E 026°30'0 0.1
2015-Feb-24 23:32N 60°09' E 026°30'0 0.0
2015-Feb-24 22:32N 60°09' E 026°30'0 0.0
2015-Feb-24 21:32N 60°09' E 026°30'0 0.0
2015-Feb-24 20:32N 60°09' E 026°30'0 0.0
2015-Feb-24 19:29N 60°09' E 026°30'0 0.0
2015-Feb-24 18:26N 60°09' E 026°30'0 0.0
2015-Feb-24 17:32N 60°09' E 026°30'0 0.0
2015-Feb-24 16:32N 60°09' E 026°30'0 0.0
2015-Feb-24 15:32N 60°09' E 026°30'0 0.0
2015-Feb-24 14:32N 60°09' E 026°30'0 0.0
2015-Feb-24 13:32N 60°09' E 026°30'0 0.0
2015-Feb-24 12:32N 60°09' E 026°30'0 0.0
2015-Feb-24 11:17N 60°09' E 026°30'0 0.0
2015-Feb-24 10:29N 60°09' E 026°30'0 0.0
2015-Feb-24 09:14N 60°09' E 026°30'0 0.0
2015-Feb-24 08:33N 60°09' E 026°30'5 5.4
2015-Feb-24 07:33N 60°06' E 026°38'1010.1
2015-Feb-24 06:33N 60°00' E 026°56'13 9.2
2015-Feb-24 05:08N 60°05' E 027°20'86 9.0
2015-Feb-23 19:32N 59°53' E 030°11'0 0.3
2015-Feb-23 18:27N 59°53' E 030°11'0 0.0
2015-Feb-23 17:15N 59°53' E 030°11'0 0.0
2015-Feb-23 15:30N 59°53' E 030°11'0 0.0
2015-Feb-23 14:24N 59°53' E 030°11'0 0.0
2015-Feb-23 13:33N 59°53' E 030°11'0 0.0
2015-Feb-23 05:33N 59°53' E 030°11'89 8.8
2015-Feb-22 19:27N 60°01' E 027°14'1010.8
2015-Feb-22 18:34N 59°58' E 026°56'1111.1
2015-Feb-22 17:33N 59°58' E 026°34'1211.3
2015-Feb-22 16:30N 59°55' E 026°11'4611.6
2015-Feb-22 12:32N 59°45' E 024°42'1211.8
2015-Feb-22 11:34N 59°42' E 024°20'1311.9
2015-Feb-22 10:27N 59°38' E 023°55'1112.2
2015-Feb-22 09:33N 59°35' E 023°34'  
Track history (hours):
 
Tides and Currents Weather Stations Pressure Air Temp Water Temp Dewpoint Dewpoint Depression Visibility Wind Speed Wind Dir Waves Ship Positions

Eira

Last reported at 2015-Mar-03 23:33 UTC. Time now 2015-Mar-04 00:12 UTC.
Position N 60°09' E 026°30'.

Length 157 m; draft 6.3 m.

Type: Cargo ship. MMSI: 230935000.

Date/timePositionNaut miles runAvg speedWind from/ knotsBaromVisibWave heightAir tempDewpointWater temp
2015-Mar-03 23:33N 60°09' E 026°30'0 0.0
2015-Mar-03 22:34N 60°09' E 026°30'0 0.0
2015-Mar-03 21:34N 60°09' E 026°30'0 0.0
2015-Mar-03 20:34N 60°09' E 026°30'0 0.0
2015-Mar-03 19:32N 60°09' E 026°30'0 0.0
2015-Mar-03 18:32N 60°09' E 026°30'0 0.0
2015-Mar-03 17:32N 60°09' E 026°29'0 0.0
2015-Mar-03 16:32N 60°09' E 026°29'0 0.0
2015-Mar-03 15:32N 60°09' E 026°29'0 0.0
2015-Mar-03 14:32N 60°09' E 026°29'0 0.0
2015-Mar-03 13:32N 60°09' E 026°29'0 0.0
2015-Mar-03 12:32N 60°09' E 026°29'0 0.0
2015-Mar-03 11:29N 60°09' E 026°29'0 0.0
2015-Mar-03 10:32N 60°09' E 026°29'0 0.0
2015-Mar-03 09:32N 60°09' E 026°29'0 0.0
2015-Mar-03 08:32N 60°09' E 026°29'0 0.0
2015-Mar-03 07:29N 60°09' E 026°29'0 0.0
2015-Mar-03 06:32N 60°09' E 026°29'0 0.0
2015-Mar-03 05:32N 60°09' E 026°29'0 0.0
2015-Mar-03 04:32N 60°09' E 026°30'0 0.0
2015-Mar-03 03:32N 60°09' E 026°30'0 0.0
2015-Mar-03 02:32N 60°09' E 026°30'0 0.0
2015-Mar-03 01:32N 60°09' E 026°30'0 0.0
2015-Mar-03 00:32N 60°09' E 026°30'0 0.0
2015-Mar-02 23:32N 60°09' E 026°30'0 0.0
2015-Mar-02 22:32N 60°09' E 026°30'0 0.0
2015-Mar-02 21:32N 60°09' E 026°30'0 0.0
2015-Mar-02 20:32N 60°09' E 026°30'0 0.0
2015-Mar-02 19:32N 60°09' E 026°30'0 0.0
2015-Mar-02 18:32N 60°09' E 026°30'0 0.0
2015-Mar-02 17:32N 60°09' E 026°30'0 0.0
2015-Mar-02 16:32N 60°09' E 026°30'0 0.0
2015-Mar-02 15:32N 60°09' E 026°30'0 0.0
2015-Mar-02 14:32N 60°09' E 026°30'0 0.0
2015-Mar-02 13:32N 60°09' E 026°30'0 0.0
2015-Mar-02 12:32N 60°09' E 026°30'0 0.0
2015-Mar-02 11:32N 60°09' E 026°30'0 0.0
2015-Mar-02 10:32N 60°09' E 026°30'0 0.0
2015-Mar-02 09:32N 60°09' E 026°30'0 0.0
2015-Mar-02 08:32N 60°09' E 026°30'0 0.0
2015-Mar-02 07:32N 60°09' E 026°30'0 0.0
2015-Mar-02 06:32N 60°09' E 026°30'0 0.0
2015-Mar-02 05:32N 60°09' E 026°30'0 0.0
2015-Mar-02 04:32N 60°09' E 026°30'0 0.0
2015-Mar-02 03:32N 60°09' E 026°30'0 0.0
2015-Mar-02 02:32N 60°09' E 026°30'0 0.0
2015-Mar-02 01:32N 60°09' E 026°30'0 0.0
2015-Mar-02 00:32N 60°09' E 026°30'0 0.0
2015-Mar-01 23:32N 60°09' E 026°30'0 0.0
2015-Mar-01 22:32N 60°09' E 026°30'0 0.0
2015-Mar-01 21:32N 60°09' E 026°30'0 0.0
2015-Mar-01 20:32N 60°09' E 026°30'0 0.0
2015-Mar-01 19:32N 60°09' E 026°30'0 0.0
2015-Mar-01 18:32N 60°09' E 026°30'0 0.0
2015-Mar-01 17:32N 60°09' E 026°30'0 0.0
2015-Mar-01 16:32N 60°09' E 026°30'0 0.1
2015-Mar-01 15:32N 60°09' E 026°30'0 0.0
2015-Mar-01 14:32N 60°09' E 026°30'0 0.0
2015-Mar-01 13:32N 60°09' E 026°30'0 0.0
2015-Mar-01 12:29N 60°09' E 026°30'0 0.0
2015-Mar-01 11:29N 60°09' E 026°30'0 0.0
2015-Mar-01 10:32N 60°09' E 026°30'0 0.0
2015-Mar-01 09:32N 60°09' E 026°30'0 0.0
2015-Mar-01 08:32N 60°09' E 026°30'0 0.0
2015-Mar-01 07:32N 60°09' E 026°30'0 0.0
2015-Mar-01 06:32N 60°09' E 026°30'0 0.0
2015-Mar-01 05:32N 60°09' E 026°30'0 0.0
2015-Mar-01 04:29N 60°09' E 026°30'0 0.0
2015-Mar-01 03:29N 60°09' E 026°30'0 0.0
2015-Mar-01 02:32N 60°09' E 026°30'0 0.0
2015-Mar-01 01:32N 60°09' E 026°30'0 0.0
2015-Mar-01 00:33N 60°09' E 026°30'5 4.8
2015-Feb-28 23:33N 60°06' E 026°38'10 9.8
2015-Feb-28 22:33N 60°01' E 026°55'9 8.9
2015-Feb-28 21:33N 60°02' E 027°12'11 9.6
2015-Feb-28 20:25N 60°08' E 027°31'82 9.2
2015-Feb-28 11:31N 59°53' E 030°11'0 0.0
2015-Feb-27 16:06N 59°53' E 030°11'2 4.0
2015-Feb-27 15:32N 59°54' E 030°08'93 2.5
2015-Feb-26 02:21N 59°58' E 027°02'810.6
2015-Feb-26 01:33N 59°59' E 026°46'9 8.4
2015-Feb-26 00:30N 60°02' E 026°29'7 7.4
2015-Feb-25 23:33N 60°09' E 026°30'0 0.0
2015-Feb-25 22:32N 60°09' E 026°30'0 0.0
2015-Feb-25 21:32N 60°09' E 026°30'0 0.0
2015-Feb-25 20:32N 60°09' E 026°30'0 0.0
2015-Feb-25 19:32N 60°09' E 026°30'0 0.0
2015-Feb-25 17:14N 60°09' E 026°30'0 0.0
2015-Feb-25 16:29N 60°09' E 026°30'0 0.0
2015-Feb-25 15:29N 60°09' E 026°30'0 0.0
2015-Feb-25 14:32N 60°09' E 026°30'0 0.0
2015-Feb-25 13:23N 60°09' E 026°30'0 0.0
2015-Feb-25 12:29N 60°09' E 026°30'0 0.0
2015-Feb-25 11:29N 60°09' E 026°30'0 0.0
2015-Feb-25 10:32N 60°09' E 026°30'0 0.0
2015-Feb-25 09:32N 60°09' E 026°30'0 0.0
2015-Feb-25 08:32N 60°09' E 026°30'0 0.0
2015-Feb-25 07:32N 60°09' E 026°30'0 0.0
2015-Feb-25 06:32N 60°09' E 026°30'0 0.0
2015-Feb-25 05:32N 60°09' E 026°30'0 0.0
2015-Feb-25 04:32N 60°09' E 026°30'0 0.0
2015-Feb-25 03:32N 60°09' E 026°30'0 0.0
2015-Feb-25 02:32N 60°09' E 026°30'0 0.0
2015-Feb-25 01:32N 60°09' E 026°30'0 0.0
2015-Feb-25 00:32N 60°09' E 026°30'0 0.1
2015-Feb-24 23:32N 60°09' E 026°30'0 0.0
2015-Feb-24 22:32N 60°09' E 026°30'0 0.0
2015-Feb-24 21:32N 60°09' E 026°30'0 0.0
2015-Feb-24 20:32N 60°09' E 026°30'0 0.0
2015-Feb-24 19:29N 60°09' E 026°30'0 0.0
2015-Feb-24 18:26N 60°09' E 026°30'0 0.0
2015-Feb-24 17:32N 60°09' E 026°30'0 0.0
2015-Feb-24 16:32N 60°09' E 026°30'0 0.0
2015-Feb-24 15:32N 60°09' E 026°30'0 0.0
2015-Feb-24 14:32N 60°09' E 026°30'0 0.0
2015-Feb-24 13:32N 60°09' E 026°30'0 0.0
2015-Feb-24 12:32N 60°09' E 026°30'0 0.0
2015-Feb-24 11:17N 60°09' E 026°30'0 0.0
2015-Feb-24 10:29N 60°09' E 026°30'0 0.0
2015-Feb-24 09:14N 60°09' E 026°30'0 0.0
2015-Feb-24 08:33N 60°09' E 026°30'5 5.4
2015-Feb-24 07:33N 60°06' E 026°38'1010.1
2015-Feb-24 06:33N 60°00' E 026°56'13 9.2
2015-Feb-24 05:08N 60°05' E 027°20'86 9.0
2015-Feb-23 19:32N 59°53' E 030°11'0 0.3
2015-Feb-23 18:27N 59°53' E 030°11'0 0.0
2015-Feb-23 17:15N 59°53' E 030°11'0 0.0
2015-Feb-23 15:30N 59°53' E 030°11'0 0.0
2015-Feb-23 14:24N 59°53' E 030°11'0 0.0
2015-Feb-23 13:33N 59°53' E 030°11'0 0.0
2015-Feb-23 05:33N 59°53' E 030°11'89 8.8
2015-Feb-22 19:27N 60°01' E 027°14'1010.8
2015-Feb-22 18:34N 59°58' E 026°56'1111.1
2015-Feb-22 17:33N 59°58' E 026°34'1211.3
2015-Feb-22 16:30N 59°55' E 026°11'4611.6
2015-Feb-22 12:32N 59°45' E 024°42'1211.8
2015-Feb-22 11:34N 59°42' E 024°20'1311.9
2015-Feb-22 10:27N 59°38' E 023°55'1112.2
2015-Feb-22 09:33N 59°35' E 023°34'  

Dump ship's entire track history